Time;durP1;ratioP1;P1;durP2;ratioP2;P2;SDS_P1;SDS_P2;PMS_P1;PMS_P2;Temp;Humidity;BMP_temperature;BMP_pressure;BME280_temperature;BME280_humidity;BME280_pressure;Samples;Min_cycle;Max_cycle;Signal;HPM_P1;HPM_P2
2023/02/13 00:00:36;;;;;;;3.33;2.92;;;0.60;64.50;;;;;;5054231;28;20033;-51
2023/02/13 00:03:02;;;;;;;3.45;2.80;;;0.60;64.40;;;;;;5054799;28;20106;-56
2023/02/13 00:05:28;;;;;;;3.03;2.67;;;0.60;64.30;;;;;;5055151;28;20118;-54
2023/02/13 00:07:54;;;;;;;3.28;2.80;;;0.60;64.20;;;;;;5054084;28;20052;-53
2023/02/13 00:10:19;;;;;;;3.22;2.92;;;0.70;64.20;;;;;;5054667;28;20048;-49
2023/02/13 00:12:45;;;;;;;3.40;2.58;;;0.70;64.10;;;;;;5054204;28;20025;-50
2023/02/13 00:15:11;;;;;;;5.28;3.03;;;0.70;64.10;;;;;;5054732;28;20348;-49
2023/02/13 00:17:36;;;;;;;3.38;3.08;;;0.70;64.00;;;;;;5054178;28;20067;-49
2023/02/13 00:20:02;;;;;;;4.03;3.08;;;0.70;64.00;;;;;;5054404;28;20383;-50
2023/02/13 00:22:28;;;;;;;3.88;3.08;;;0.70;63.90;;;;;;5054980;28;20106;-60
2023/02/13 00:24:54;;;;;;;4.88;3.47;;;0.70;63.80;;;;;;5054303;28;20029;-60
2023/02/13 00:27:19;;;;;;;3.47;2.95;;;0.70;63.90;;;;;;5054544;28;20044;-65
2023/02/13 00:29:45;;;;;;;4.10;3.20;;;0.70;63.80;;;;;;5054306;28;20459;-65
2023/02/13 00:32:11;;;;;;;3.20;2.80;;;0.70;63.80;;;;;;5054093;28;20399;-60
2023/02/13 00:34:36;;;;;;;4.10;2.92;;;0.70;64.00;;;;;;5054124;28;20051;-60
2023/02/13 00:37:02;;;;;;;4.18;2.92;;;0.70;63.80;;;;;;5046535;28;20071;-60
2023/02/13 00:39:28;;;;;;;3.75;2.90;;;0.70;63.80;;;;;;5053784;28;20044;-60
2023/02/13 00:41:53;;;;;;;4.38;3.20;;;0.70;63.80;;;;;;5053898;28;20033;-61
2023/02/13 00:44:19;;;;;;;3.00;2.70;;;0.60;63.70;;;;;;5053966;28;20029;-61
2023/02/13 00:46:45;;;;;;;3.42;2.90;;;0.60;63.70;;;;;;5054116;28;20033;-64
2023/02/13 00:49:10;;;;;;;3.67;2.58;;;0.60;63.70;;;;;;5054435;28;20025;-65
2023/02/13 00:51:36;;;;;;;3.17;2.88;;;0.60;63.70;;;;;;5054066;28;20373;-53
2023/02/13 00:54:01;;;;;;;3.08;2.70;;;0.60;63.70;;;;;;5054120;28;20067;-50
2023/02/13 00:56:27;;;;;;;2.80;2.60;;;0.60;63.80;;;;;;5053790;28;20065;-62
2023/02/13 00:58:53;;;;;;;2.92;2.60;;;0.60;63.80;;;;;;5053632;28;20079;-61
2023/02/13 01:01:18;;;;;;;4.20;3.00;;;0.60;63.80;;;;;;5054377;28;20044;-56
2023/02/13 01:03:44;;;;;;;4.15;2.90;;;0.60;63.80;;;;;;5054303;28;20044;-53
2023/02/13 01:06:10;;;;;;;3.72;2.95;;;0.60;63.80;;;;;;5053036;28;20021;-56
2023/02/13 01:08:39;;;;;;;4.45;2.80;;;0.60;63.70;;;;;;5053651;28;20380;-55
2023/02/13 01:11:05;;;;;;;4.32;3.10;;;0.60;63.70;;;;;;5057914;28;20455;-62
2023/02/13 01:13:31;;;;;;;4.30;3.28;;;0.50;63.70;;;;;;5060507;28;20355;-62
2023/02/13 01:15:57;;;;;;;3.80;3.20;;;0.50;63.70;;;;;;5060660;28;20032;-56
2023/02/13 01:18:22;;;;;;;3.85;3.22;;;0.50;63.80;;;;;;5060273;28;20047;-55
2023/02/13 01:21:00;;;;;;;4.53;3.60;;;0.50;63.60;;;;;;5060984;28;20111;-60
2023/02/13 01:23:30;;;;;;;5.00;3.45;;;0.50;63.50;;;;;;5059713;28;20119;-60
2023/02/13 01:25:55;;;;;;;4.90;3.70;;;0.50;63.80;;;;;;5060258;28;20108;-63
2023/02/13 01:28:21;;;;;;;4.57;3.20;;;0.50;63.60;;;;;;5060341;28;20452;-63
2023/02/13 01:30:52;;;;;;;5.10;3.75;;;0.40;63.60;;;;;;5060246;28;20096;-61
2023/02/13 01:33:18;;;;;;;5.28;3.72;;;0.50;63.70;;;;;;5060249;28;20029;-62
2023/02/13 01:35:44;;;;;;;5.43;3.85;;;0.50;63.80;;;;;;5060104;28;20444;-62
2023/02/13 01:38:09;;;;;;;5.85;4.13;;;0.60;63.80;;;;;;5060285;28;20029;-62
2023/02/13 01:40:35;;;;;;;6.95;4.80;;;0.60;63.80;;;;;;5060418;28;20021;-66
2023/02/13 01:43:00;;;;;;;6.40;4.35;;;0.70;63.60;;;;;;5060572;28;20033;-65
2023/02/13 01:45:28;;;;;;;6.68;3.80;;;0.70;63.30;;;;;;5060456;28;20077;-65
2023/02/13 01:47:56;;;;;;;5.53;4.45;;;0.80;63.30;;;;;;5060213;28;20037;-65
2023/02/13 01:50:22;;;;;;;5.53;4.20;;;0.80;63.00;;;;;;5060373;28;20040;-65
2023/02/13 01:53:04;;;;;;;6.20;4.28;;;0.80;63.10;;;;;;5060682;28;20025;-66
2023/02/13 01:55:32;;;;;;;5.72;4.60;;;0.70;63.00;;;;;;5060322;28;20040;-64
2023/02/13 01:58:06;;;;;;;6.35;4.35;;;0.80;63.10;;;;;;5060108;28;20025;-65
2023/02/13 02:00:33;;;;;;;5.03;4.03;;;0.80;63.00;;;;;;5060553;28;20028;-66
2023/02/13 02:03:34;;;;;;;6.07;4.28;;;0.80;62.80;;;;;;5060458;28;20063;-65
2023/02/13 02:06:01;;;;;;;6.25;4.80;;;0.80;62.70;;;;;;5059039;28;20048;-64
2023/02/13 02:08:28;;;;;;;5.20;4.30;;;0.80;62.80;;;;;;5060189;28;20033;-64
2023/02/13 02:10:56;;;;;;;5.60;4.53;;;0.80;62.80;;;;;;5060403;28;20039;-65
2023/02/13 02:13:22;;;;;;;6.00;4.53;;;0.80;62.80;;;;;;5060333;28;20357;-65
2023/02/13 02:15:49;;;;;;;6.25;4.65;;;0.90;62.80;;;;;;5059816;28;20040;-65
2023/02/13 02:18:19;;;;;;;6.35;4.90;;;0.90;62.80;;;;;;5059992;28;20040;-65
2023/02/13 02:21:04;;;;;;;5.22;4.28;;;1.00;62.60;;;;;;5060282;28;20476;-64
2023/02/13 02:24:06;;;;;;;7.28;4.38;;;1.00;62.50;;;;;;5056012;28;20114;-65
2023/02/13 02:27:09;;;;;;;5.20;4.05;;;1.00;62.40;;;;;;5056213;28;20029;-65
2023/02/13 02:29:50;;;;;;;7.10;4.57;;;1.00;62.20;;;;;;5056882;28;20028;-65
2023/02/13 02:32:37;;;;;;;6.03;4.18;;;1.00;62.10;;;;;;5056853;28;20033;-64
2023/02/13 02:35:18;;;;;;;5.82;4.43;;;1.00;62.00;;;;;;5056077;28;20024;-66
2023/02/13 02:38:10;;;;;;;7.72;5.05;;;1.00;62.00;;;;;;5056473;28;20028;-65
2023/02/13 02:40:41;;;;;;;5.55;4.65;;;1.00;61.90;;;;;;5056633;28;20028;-65
2023/02/13 02:43:22;;;;;;;6.30;4.68;;;1.10;61.90;;;;;;5056159;28;20078;-64
2023/02/13 02:45:51;;;;;;;6.20;4.57;;;1.10;61.90;;;;;;5056797;28;20110;-65
2023/02/13 02:51:45;;;;;;;8.13;4.72;;;1.10;61.90;;;;;;5055946;28;20040;-64
2023/02/13 02:57:16;;;;;;;6.35;4.05;;;1.00;61.90;;;;;;5044975;28;20075;-59
2023/02/13 03:08:08;;;;;;;4.60;4.10;;;1.00;61.90;;;;;;5049907;28;20136;-61
2023/02/13 03:13:42;;;;;;;5.35;4.30;;;0.90;62.00;;;;;;5049882;28;20079;-60
2023/02/13 03:22:40;;;;;;;6.15;4.30;;;1.00;62.10;;;;;;5052591;28;20098;-50
2023/02/13 03:25:09;;;;;;;5.05;4.10;;;1.00;62.20;;;;;;5063593;28;20049;-50
2023/02/13 03:30:34;;;;;;;5.65;4.15;;;1.00;62.10;;;;;;5052889;28;20076;-61
2023/02/13 03:33:14;;;;;;;7.63;5.10;;;1.00;62.10;;;;;;5052496;28;20420;-61
2023/02/13 03:39:21;;;;;;;4.95;4.45;;;1.00;62.10;;;;;;5042959;28;20040;-64
2023/02/13 03:42:01;;;;;;;7.00;4.55;;;1.00;62.00;;;;;;5038021;28;20037;-61
2023/02/13 03:44:43;;;;;;;7.50;4.25;;;1.10;61.90;;;;;;5043278;28;20036;-61
2023/02/13 03:47:10;;;;;;;8.57;4.88;;;1.10;61.90;;;;;;5041762;28;20098;-62
2023/02/13 03:50:05;;;;;;;7.15;4.32;;;1.10;61.90;;;;;;5051178;28;20044;-61
2023/02/13 03:52:54;;;;;;;6.63;4.32;;;1.10;61.80;;;;;;5051077;28;20390;-61
2023/02/13 04:01:06;;;;;;;5.55;4.15;;;1.00;61.90;;;;;;5044699;28;20399;-62
2023/02/13 04:03:57;;;;;;;5.55;4.50;;;0.90;62.00;;;;;;5035308;28;20026;-62
2023/02/13 04:06:45;;;;;;;5.03;4.22;;;1.00;62.10;;;;;;5051984;28;20387;-62
2023/02/13 04:09:11;;;;;;;5.93;4.50;;;1.00;62.10;;;;;;5034662;28;20044;-62
2023/02/13 04:11:52;;;;;;;5.43;4.28;;;1.00;62.10;;;;;;5037619;28;20623;-61
2023/02/13 04:14:24;;;;;;;6.00;4.30;;;1.00;62.00;;;;;;5037591;28;20048;-62
2023/02/13 04:16:55;;;;;;;5.55;4.10;;;1.00;62.00;;;;;;5034866;28;20108;-62
2023/02/13 04:19:21;;;;;;;6.32;4.22;;;1.00;61.90;;;;;;5034797;28;20108;-61
2023/02/13 04:21:54;;;;;;;6.40;4.13;;;1.00;61.90;;;;;;5046240;28;20179;-63
2023/02/13 04:24:20;;;;;;;5.95;4.20;;;1.00;62.00;;;;;;5041673;28;20049;-62
2023/02/13 04:26:46;;;;;;;5.25;4.18;;;1.00;62.00;;;;;;5037684;28;20033;-63
2023/02/13 04:29:11;;;;;;;8.15;4.88;;;1.00;61.90;;;;;;5050154;28;20032;-64
2023/02/13 04:31:39;;;;;;;5.97;4.07;;;1.00;62.00;;;;;;5050091;28;20040;-63
2023/02/13 04:34:04;;;;;;;6.68;4.28;;;1.00;62.70;;;;;;5038010;28;20033;-63
2023/02/13 04:36:30;;;;;;;5.78;4.30;;;1.00;62.00;;;;;;5048066;28;20416;-61
2023/02/13 04:38:56;;;;;;;6.15;4.68;;;1.00;61.90;;;;;;5045665;28;20067;-60
2023/02/13 04:41:21;;;;;;;7.88;4.68;;;1.00;62.00;;;;;;5050600;28;20074;-61
2023/02/13 04:43:47;;;;;;;8.73;5.68;;;1.00;61.90;;;;;;5031877;28;20033;-61
2023/02/13 04:46:13;;;;;;;9.55;7.15;;;1.10;62.00;;;;;;5046782;28;20056;-52
2023/02/13 04:48:39;;;;;;;8.60;5.95;;;1.10;61.90;;;;;;5044816;28;20472;-49
2023/02/13 04:51:05;;;;;;;10.52;5.40;;;1.10;61.90;;;;;;5054724;28;20032;-63
2023/02/13 04:53:30;;;;;;;7.30;5.68;;;1.10;61.90;;;;;;5050350;28;20021;-64
2023/02/13 04:55:56;;;;;;;7.32;5.80;;;1.10;61.90;;;;;;5048007;28;20047;-57
2023/02/13 04:58:22;;;;;;;11.20;7.13;;;1.10;61.90;;;;;;5050104;28;20128;-56
2023/02/13 05:00:47;;;;;;;8.15;5.43;;;1.10;61.90;;;;;;5046568;28;20244;-63
2023/02/13 05:03:13;;;;;;;6.25;5.10;;;1.10;62.00;;;;;;5046613;28;20485;-62
2023/02/13 05:05:39;;;;;;;6.28;4.82;;;1.10;62.10;;;;;;5039965;28;20038;-57
2023/02/13 05:08:06;;;;;;;6.75;5.13;;;1.10;62.00;;;;;;5046640;28;20125;-56
2023/02/13 05:10:32;;;;;;;7.20;5.13;;;1.00;62.20;;;;;;5048222;28;20083;-61
2023/02/13 05:12:58;;;;;;;6.53;4.88;;;0.90;62.30;;;;;;5052578;28;20487;-61
2023/02/13 05:15:24;;;;;;;6.43;4.47;;;0.80;62.50;;;;;;5051113;28;20033;-50
2023/02/13 05:17:49;;;;;;;6.68;4.20;;;0.80;62.70;;;;;;5047065;28;20052;-49
2023/02/13 05:20:16;;;;;;;6.45;4.60;;;0.70;62.90;;;;;;5055608;28;20462;-63
2023/02/13 05:25:37;;;;;;;5.18;4.10;;;0.70;63.40;;;;;;5042994;28;20467;-52
2023/02/13 05:28:03;;;;;;;6.28;4.38;;;0.70;63.50;;;;;;5041449;28;20439;-53
2023/02/13 05:30:29;;;;;;;7.30;4.50;;;0.70;63.60;;;;;;5043710;28;20029;-61
2023/02/13 05:32:55;;;;;;;6.20;4.25;;;0.70;63.70;;;;;;5049190;28;20518;-61
2023/02/13 05:35:22;;;;;;;7.70;4.85;;;0.60;63.70;;;;;;5049801;28;20032;-65
2023/02/13 05:37:48;;;;;;;7.03;4.85;;;0.60;63.80;;;;;;5041801;28;20034;-64
2023/02/13 05:40:14;;;;;;;7.97;5.45;;;0.60;64.00;;;;;;5044192;28;20087;-60
2023/02/13 05:42:41;;;;;;;8.65;5.07;;;0.60;64.00;;;;;;5057906;28;20829;-58
2023/02/13 05:45:08;;;;;;;8.80;4.82;;;0.70;64.20;;;;;;5047419;28;20460;-60
2023/02/13 05:47:33;;;;;;;8.98;5.32;;;0.70;64.30;;;;;;5050027;28;20530;-59
2023/02/13 05:49:59;;;;;;;7.05;4.93;;;0.80;64.40;;;;;;5044045;28;20098;-59
2023/02/13 05:52:25;;;;;;;6.03;4.50;;;1.00;64.40;;;;;;5043801;28;20025;-59
2023/02/13 05:54:51;;;;;;;6.97;4.85;;;1.10;64.20;;;;;;5044908;28;20056;-61
2023/02/13 05:57:17;;;;;;;6.68;5.45;;;1.20;64.00;;;;;;5048298;28;20037;-60
2023/02/13 05:59:43;;;;;;;6.85;4.97;;;1.30;64.00;;;;;;5052519;28;20036;-60
2023/02/13 06:02:09;;;;;;;8.05;4.70;;;1.40;63.80;;;;;;5052256;28;20471;-60
2023/02/13 06:04:34;;;;;;;7.75;5.30;;;1.50;64.40;;;;;;5050156;28;20033;-60
2023/02/13 06:07:00;;;;;;;6.07;4.68;;;1.60;63.60;;;;;;5051937;28;20090;-60
2023/02/13 06:09:26;;;;;;;6.28;4.78;;;1.70;63.50;;;;;;5045267;28;20044;-59
2023/02/13 06:11:51;;;;;;;6.68;4.85;;;1.80;63.40;;;;;;5051616;28;20083;-60
2023/02/13 06:14:17;;;;;;;6.57;4.78;;;1.90;63.20;;;;;;5050123;28;20029;-59
2023/02/13 06:16:43;;;;;;;7.00;5.10;;;1.90;63.20;;;;;;5047065;28;20027;-59
2023/02/13 06:19:08;;;;;;;6.15;5.00;;;2.00;63.00;;;;;;5050161;28;20037;-59
2023/02/13 06:21:36;;;;;;;5.13;4.20;;;2.10;62.90;;;;;;5051510;28;20028;-60
2023/02/13 06:24:04;;;;;;;5.85;4.45;;;2.20;63.00;;;;;;5048450;28;20129;-59
2023/02/13 06:26:29;;;;;;;6.50;4.57;;;2.30;63.10;;;;;;5058889;28;20138;-60
2023/02/13 06:28:55;;;;;;;8.63;5.25;;;2.30;62.80;;;;;;5049587;28;20037;-60
2023/02/13 06:31:21;;;;;;;8.27;4.85;;;2.30;62.90;;;;;;5052669;28;20025;-59
2023/02/13 06:33:47;;;;;;;6.88;5.03;;;2.30;62.90;;;;;;5051716;28;20025;-60
2023/02/13 06:36:12;;;;;;;6.00;4.72;;;2.20;62.90;;;;;;5050693;28;20440;-60
2023/02/13 06:38:38;;;;;;;6.60;4.63;;;2.20;63.10;;;;;;5043714;28;20086;-60
2023/02/13 06:41:04;;;;;;;6.45;5.07;;;2.20;63.30;;;;;;5053236;28;20213;-60
2023/02/13 06:43:30;;;;;;;8.20;5.35;;;2.20;63.50;;;;;;5037311;28;20026;-61
2023/02/13 06:45:55;;;;;;;6.78;4.90;;;2.30;63.70;;;;;;5042269;28;20028;-61
2023/02/13 06:48:21;;;;;;;6.30;4.50;;;2.50;63.80;;;;;;5048888;28;20037;-60
2023/02/13 06:50:47;;;;;;;7.80;5.20;;;2.60;63.70;;;;;;5041432;28;20068;-61
2023/02/13 06:53:13;;;;;;;7.63;5.15;;;2.70;63.30;;;;;;5048203;28;20060;-60
2023/02/13 06:55:38;;;;;;;8.80;5.80;;;2.90;63.50;;;;;;5040802;28;20017;-65
2023/02/13 06:58:05;;;;;;;7.30;4.97;;;3.00;63.40;;;;;;5044926;28;20039;-64
2023/02/13 07:00:30;;;;;;;7.60;5.40;;;3.20;63.40;;;;;;5046358;28;20455;-60
2023/02/13 07:03:02;;;;;;;7.50;5.05;;;3.40;63.10;;;;;;5043061;28;20022;-60
2023/02/13 07:05:27;;;;;;;7.10;4.63;;;3.50;62.60;;;;;;5046316;28;20041;-60
2023/02/13 07:07:53;;;;;;;7.03;4.80;;;3.60;62.20;;;;;;5055524;28;20407;-60
2023/02/13 07:10:19;;;;;;;8.32;5.47;;;3.70;62.00;;;;;;5042019;28;20084;-60
2023/02/13 07:12:44;;;;;;;6.93;5.30;;;3.80;62.00;;;;;;5038229;28;20021;-61
2023/02/13 07:15:13;;;;;;;5.93;4.95;;;3.90;62.00;;;;;;5044932;28;20056;-59
2023/02/13 07:17:39;;;;;;;7.50;5.70;;;3.90;61.70;;;;;;5036634;28;20395;-64
2023/02/13 07:20:05;;;;;;;6.95;4.32;;;4.00;61.50;;;;;;5035249;28;20021;-63
2023/02/13 07:22:32;;;;;;;5.88;4.43;;;4.00;61.50;;;;;;5041088;28;20068;-63
2023/02/13 07:24:58;;;;;;;5.90;4.25;;;4.00;61.50;;;;;;5037727;28;20033;-63
2023/02/13 07:27:25;;;;;;;6.00;4.45;;;3.90;61.10;;;;;;5055639;28;20531;-51
2023/02/13 07:29:50;;;;;;;6.53;4.40;;;3.90;61.20;;;;;;5055009;28;20025;-48
2023/02/13 07:32:16;;;;;;;5.10;4.20;;;3.80;61.20;;;;;;5055352;28;20101;-48
2023/02/13 07:34:42;;;;;;;5.20;4.22;;;3.80;61.40;;;;;;5055364;28;20468;-50
2023/02/13 07:37:07;;;;;;;6.80;4.45;;;3.80;61.60;;;;;;5053783;28;20407;-50
2023/02/13 07:39:33;;;;;;;6.72;4.13;;;3.90;61.90;;;;;;5055402;28;20388;-53
2023/02/13 07:41:59;;;;;;;5.82;4.45;;;4.00;62.00;;;;;;5054913;28;20025;-48
2023/02/13 07:44:24;;;;;;;7.28;4.65;;;4.00;61.90;;;;;;5055114;28;20040;-50
2023/02/13 07:46:50;;;;;;;6.45;4.90;;;4.10;61.60;;;;;;5054806;28;20051;-51
2023/02/13 07:49:15;;;;;;;7.47;5.28;;;4.20;61.30;;;;;;5055073;28;20029;-50
2023/02/13 07:51:41;;;;;;;6.63;5.15;;;4.20;61.30;;;;;;5055363;28;20352;-49
2023/02/13 07:54:06;;;;;;;6.65;5.00;;;4.20;61.30;;;;;;5055714;28;20033;-52
2023/02/13 07:56:32;;;;;;;6.72;5.18;;;4.30;61.30;;;;;;5055286;28;20024;-50
2023/02/13 07:58:58;;;;;;;8.20;4.97;;;4.40;61.30;;;;;;5036937;28;20037;-52
2023/02/13 08:01:23;;;;;;;8.55;5.35;;;4.50;61.30;;;;;;5035029;28;20060;-50
2023/02/13 08:03:50;;;;;;;7.75;5.28;;;4.50;61.10;;;;;;5035611;28;20060;-51
2023/02/13 08:06:16;;;;;;;8.18;5.45;;;4.60;60.80;;;;;;5053115;28;20021;-54
2023/02/13 08:08:42;;;;;;;9.43;5.88;;;4.60;60.80;;;;;;5043607;28;20080;-51
2023/02/13 08:14:14;;;;;;;8.57;5.10;;;4.70;60.70;;;;;;5045938;28;20060;-54
2023/02/13 08:16:40;;;;;;;8.40;5.63;;;4.80;60.90;;;;;;5034472;28;20380;-61
2023/02/13 08:19:05;;;;;;;8.50;5.43;;;4.90;61.00;;;;;;5050555;28;20037;-63
2023/02/13 08:21:31;;;;;;;7.25;4.80;;;4.90;60.90;;;;;;5051659;28;20036;-63
2023/02/13 08:23:57;;;;;;;6.25;4.68;;;5.10;60.90;;;;;;5052399;28;20114;-63
2023/02/13 08:26:23;;;;;;;7.68;4.70;;;5.10;60.70;;;;;;5053782;28;20483;-63
2023/02/13 08:28:48;;;;;;;5.32;4.15;;;5.20;60.10;;;;;;5054167;28;20075;-63
2023/02/13 08:31:14;;;;;;;5.20;4.15;;;5.30;60.30;;;;;;5054149;28;20040;-63
2023/02/13 08:33:40;;;;;;;5.28;4.13;;;5.30;59.80;;;;;;5053602;28;20036;-63
2023/02/13 08:36:06;;;;;;;5.18;4.03;;;5.30;59.80;;;;;;5053898;28;20459;-63
2023/02/13 08:38:33;;;;;;;6.13;4.28;;;5.30;59.80;;;;;;5053419;28;20116;-63
2023/02/13 08:40:58;;;;;;;7.65;4.68;;;5.30;59.90;;;;;;5054178;28;20039;-63
2023/02/13 08:43:24;;;;;;;6.35;4.20;;;5.20;60.00;;;;;;5054103;28;20029;-63
2023/02/13 08:45:50;;;;;;;6.90;4.70;;;5.20;60.20;;;;;;5053860;28;20116;-63
2023/02/13 08:48:15;;;;;;;7.63;4.97;;;5.10;59.90;;;;;;5053300;28;20028;-63
2023/02/13 08:50:41;;;;;;;7.55;4.47;;;5.00;59.90;;;;;;5053593;28;20036;-63
2023/02/13 08:53:07;;;;;;;7.95;5.10;;;5.00;60.10;;;;;;5053534;28;20029;-63
2023/02/13 08:55:33;;;;;;;6.35;4.63;;;4.80;60.20;;;;;;5053814;28;20032;-55
2023/02/13 08:58:00;;;;;;;7.60;5.40;;;4.80;60.40;;;;;;5054124;28;20040;-54
2023/02/13 09:00:26;;;;;;;6.75;4.88;;;4.70;60.70;;;;;;5036628;28;20455;-63
2023/02/13 09:02:51;;;;;;;6.43;4.72;;;4.80;61.00;;;;;;5053076;28;20028;-63
2023/02/13 09:05:17;;;;;;;8.95;5.60;;;4.80;61.10;;;;;;5053641;28;20025;-62
2023/02/13 09:07:43;;;;;;;6.63;4.95;;;4.90;61.00;;;;;;5054009;28;20037;-64
2023/02/13 09:10:09;;;;;;;8.93;5.45;;;4.90;60.90;;;;;;5053410;28;20433;-62
2023/02/13 09:12:35;;;;;;;7.85;5.50;;;4.90;60.80;;;;;;5036140;28;20512;-63
2023/02/13 09:15:00;;;;;;;9.27;5.40;;;4.90;60.90;;;;;;5053690;28;20104;-61
2023/02/13 09:17:26;;;;;;;7.32;5.40;;;4.90;61.00;;;;;;5054303;28;20029;-63
2023/02/13 09:19:51;;;;;;;7.90;5.82;;;5.00;61.20;;;;;;5054121;28;20111;-62
2023/02/13 09:22:17;;;;;;;8.40;5.85;;;5.00;61.10;;;;;;5053688;28;20055;-62
2023/02/13 09:24:43;;;;;;;8.88;6.30;;;5.10;61.20;;;;;;5053713;28;20029;-62
2023/02/13 09:27:08;;;;;;;7.80;5.93;;;5.20;61.20;;;;;;5054086;28;20037;-62
2023/02/13 09:29:35;;;;;;;8.30;6.15;;;5.30;61.10;;;;;;5053691;28;20463;-62
2023/02/13 09:32:00;;;;;;;9.43;6.50;;;5.40;60.90;;;;;;5055379;28;20025;-63
2023/02/13 09:34:26;;;;;;;8.05;5.88;;;5.40;60.60;;;;;;5057818;28;20505;-64
2023/02/13 09:36:53;;;;;;;8.88;6.90;;;5.40;60.80;;;;;;5057296;28;20025;-62
2023/02/13 09:39:19;;;;;;;10.18;7.25;;;5.50;60.70;;;;;;5058112;28;20028;-61
2023/02/13 09:41:48;;;;;;;9.00;6.28;;;5.60;60.60;;;;;;5057571;28;20082;-62
2023/02/13 09:44:32;;;;;;;9.10;6.72;;;5.70;60.50;;;;;;5057781;28;20089;-63
2023/02/13 09:47:03;;;;;;;8.30;6.07;;;5.70;60.40;;;;;;5057667;28;20067;-62
2023/02/13 09:49:34;;;;;;;6.90;6.13;;;5.70;60.50;;;;;;5022874;28;20090;-62
2023/02/13 09:52:00;;;;;;;8.75;6.63;;;5.80;60.70;;;;;;5056876;28;20672;-63
2023/02/13 09:54:27;;;;;;;10.25;7.13;;;5.80;60.60;;;;;;5057081;28;20048;-61
2023/02/13 09:57:06;;;;;;;10.07;6.65;;;5.80;60.80;;;;;;5057780;28;20403;-63
2023/02/13 09:59:50;;;;;;;8.32;6.70;;;5.80;60.60;;;;;;5057104;28;20033;-64
2023/02/13 10:02:42;;;;;;;9.23;7.43;;;5.90;60.60;;;;;;5056924;28;20525;-62
2023/02/13 10:05:36;;;;;;;9.63;7.10;;;5.90;60.40;;;;;;5057220;28;20031;-64
2023/02/13 10:08:11;;;;;;;9.55;6.82;;;5.90;60.50;;;;;;5057152;28;20055;-61
2023/02/13 10:10:50;;;;;;;11.27;7.75;;;5.90;60.80;;;;;;5057367;28;20048;-61
2023/02/13 10:13:31;;;;;;;11.02;7.93;;;5.90;60.70;;;;;;5056785;28;20068;-61
2023/02/13 10:16:01;;;;;;;7.37;6.13;;;5.90;60.70;;;;;;5056497;28;20032;-61
2023/02/13 10:18:50;;;;;;;9.05;6.38;;;5.90;60.70;;;;;;5056995;28;20029;-62
2023/02/13 10:21:21;;;;;;;9.43;6.70;;;5.90;60.60;;;;;;5056911;28;20134;-61
2023/02/13 10:23:54;;;;;;;8.77;5.90;;;5.90;60.40;;;;;;5056931;28;20041;-62
2023/02/13 10:26:26;;;;;;;7.80;5.63;;;5.80;60.50;;;;;;5038895;28;20379;-62
2023/02/13 10:31:48;;;;;;;9.95;6.68;;;5.80;60.50;;;;;;5056708;28;20525;-62
2023/02/13 10:34:16;;;;;;;10.27;7.07;;;5.80;60.50;;;;;;5057019;28;20056;-62
2023/02/13 10:36:46;;;;;;;11.98;7.63;;;5.70;60.50;;;;;;5057024;28;20032;-62
2023/02/13 10:39:20;;;;;;;8.80;6.65;;;5.70;60.50;;;;;;5056573;28;20376;-62
2023/02/13 10:42:05;;;;;;;7.38;6.13;;;5.60;60.50;;;;;;5056035;28;20017;-62
2023/02/13 10:44:48;;;;;;;8.77;6.30;;;5.70;60.70;;;;;;5055210;28;20048;-62
2023/02/13 10:47:39;;;;;;;8.43;5.72;;;5.70;60.90;;;;;;5056107;28;20171;-62
2023/02/13 10:50:30;;;;;;;10.07;6.70;;;5.80;60.80;;;;;;5056681;28;20036;-62
2023/02/13 10:53:07;;;;;;;9.15;6.20;;;5.90;60.70;;;;;;5056473;28;20111;-62
2023/02/13 10:55:49;;;;;;;9.63;6.75;;;5.90;60.50;;;;;;5055948;28;20025;-62
2023/02/13 10:58:25;;;;;;;8.75;5.80;;;6.10;60.50;;;;;;5056207;28;20021;-62
2023/02/13 11:00:59;;;;;;;8.38;6.00;;;6.10;60.30;;;;;;5056222;28;20028;-62
2023/02/13 11:03:27;;;;;;;10.07;6.82;;;6.20;60.00;;;;;;5056075;28;20037;-62
2023/02/13 11:05:55;;;;;;;7.70;5.93;;;6.20;59.80;;;;;;5055448;28;20029;-62
2023/02/13 11:08:32;;;;;;;8.88;6.60;;;6.20;59.90;;;;;;5049716;28;20037;-62
2023/02/13 11:10:59;;;;;;;7.80;6.45;;;6.10;59.80;;;;;;5036274;28;20128;-62
2023/02/13 11:13:28;;;;;;;8.48;5.95;;;6.10;60.10;;;;;;5035614;28;20474;-61
2023/02/13 11:16:05;;;;;;;8.88;6.78;;;6.10;60.00;;;;;;5035754;28;20441;-63
2023/02/13 11:18:37;;;;;;;8.38;6.13;;;6.20;60.10;;;;;;5036419;28;20059;-62
2023/02/13 11:21:07;;;;;;;7.82;6.22;;;6.20;60.20;;;;;;5035953;28;20034;-63
2023/02/13 11:23:35;;;;;;;8.95;6.20;;;6.30;60.20;;;;;;5035873;28;20052;-63
2023/02/13 11:26:12;;;;;;;7.72;6.38;;;6.30;60.10;;;;;;5035707;28;20021;-62
2023/02/13 11:28:47;;;;;;;8.38;6.40;;;6.40;60.10;;;;;;5035480;28;20060;-62
2023/02/13 11:31:23;;;;;;;7.88;6.28;;;6.40;60.00;;;;;;5035594;28;20422;-62
2023/02/13 11:33:49;;;;;;;9.77;6.80;;;6.50;60.00;;;;;;5035253;28;20033;-61
2023/02/13 11:36:23;;;;;;;8.50;7.00;;;6.50;60.10;;;;;;5035381;28;20032;-61
2023/02/13 11:39:17;;;;;;;8.82;6.35;;;6.50;60.50;;;;;;5047590;28;20044;-62
2023/02/13 11:41:44;;;;;;;8.82;6.50;;;6.60;59.90;;;;;;5055066;28;20028;-61
2023/02/13 11:44:27;;;;;;;8.32;6.95;;;6.60;59.50;;;;;;5055448;28;20075;-61
2023/02/13 11:46:55;;;;;;;11.80;7.80;;;6.60;59.50;;;;;;5055371;28;20040;-61
2023/02/13 11:49:45;;;;;;;10.10;7.82;;;6.40;59.40;;;;;;5054819;28;20025;-61
2023/02/13 11:52:24;;;;;;;10.88;7.13;;;6.40;59.60;;;;;;5055302;28;20021;-62
2023/02/13 11:55:00;;;;;;;10.00;7.50;;;6.30;59.60;;;;;;5055289;28;20043;-61
2023/02/13 11:57:35;;;;;;;11.13;7.65;;;6.20;59.80;;;;;;5053236;28;20037;-62
2023/02/13 12:00:36;;;;;;;9.77;7.57;;;6.10;59.90;;;;;;5048683;28;20455;-62
2023/02/13 12:03:03;;;;;;;8.88;6.78;;;6.10;60.00;;;;;;5053056;28;20155;-62
2023/02/13 12:05:28;;;;;;;8.55;7.20;;;6.00;60.10;;;;;;5054796;28;20029;-62
2023/02/13 12:07:59;;;;;;;11.38;7.93;;;6.00;60.30;;;;;;5054277;28;20044;-62
2023/02/13 12:10:27;;;;;;;12.82;8.80;;;5.90;60.30;;;;;;5047966;28;20091;-61
2023/02/13 12:12:56;;;;;;;10.55;8.05;;;5.90;60.50;;;;;;5054163;28;20060;-62
2023/02/13 12:15:27;;;;;;;10.13;7.30;;;5.90;60.80;;;;;;5054768;28;20028;-62
2023/02/13 12:18:15;;;;;;;11.80;8.67;;;5.90;60.90;;;;;;5054892;28;20078;-62
2023/02/13 12:21:01;;;;;;;12.57;8.60;;;5.90;61.10;;;;;;5054322;28;20029;-62
2023/02/13 12:23:27;;;;;;;12.43;8.57;;;5.80;61.10;;;;;;5055008;28;20055;-62
2023/02/13 12:26:21;;;;;;;11.10;7.60;;;5.80;61.30;;;;;;5051085;28;20033;-62
2023/02/13 12:29:08;;;;;;;11.27;9.02;;;5.80;61.40;;;;;;5039397;28;20037;-62
2023/02/13 12:31:49;;;;;;;15.82;9.85;;;5.80;61.50;;;;;;5048812;28;20072;-62
2023/02/13 12:34:32;;;;;;;12.57;9.63;;;5.70;61.90;;;;;;5040979;28;20028;-62
2023/02/13 12:37:15;;;;;;;13.52;9.18;;;5.60;62.30;;;;;;5033860;28;20375;-62
2023/02/13 12:39:49;;;;;;;14.40;10.80;;;5.50;63.30;;;;;;5034429;28;20164;-62
2023/02/13 12:42:35;;;;;;;12.18;9.20;;;5.40;63.30;;;;;;5034422;28;20029;-60
2023/02/13 12:45:09;;;;;;;13.80;10.18;;;5.30;63.60;;;;;;5034486;28;20029;-61
2023/02/13 12:47:48;;;;;;;13.25;9.15;;;5.30;64.00;;;;;;5033582;28;20049;-61
2023/02/13 12:50:39;;;;;;;12.32;9.73;;;5.20;64.00;;;;;;5034527;28;20045;-62
2023/02/13 12:53:31;;;;;;;11.45;8.82;;;5.20;64.50;;;;;;5034306;28;20075;-61
2023/02/13 12:56:45;;;;;;;11.65;8.50;;;5.10;64.70;;;;;;5033910;28;20353;-61
2023/02/13 12:59:26;;;;;;;10.70;7.50;;;5.10;64.90;;;;;;4992863;28;20054;-60
2023/02/13 13:02:10;;;;;;;10.27;7.35;;;5.10;65.00;;;;;;5033782;28;20024;-63
2023/02/13 13:04:54;;;;;;;8.98;6.95;;;5.10;64.90;;;;;;5033775;28;20029;-60
2023/02/13 13:07:45;;;;;;;9.20;7.15;;;5.20;65.20;;;;;;5033203;28;20037;-61
2023/02/13 13:10:14;;;;;;;9.85;8.00;;;5.20;65.20;;;;;;5034048;28;20109;-60
2023/02/13 13:13:17;;;;;;;10.05;8.05;;;5.10;65.20;;;;;;5034209;28;20519;-60
2023/02/13 13:16:03;;;;;;;10.38;7.97;;;5.20;65.30;;;;;;5033432;28;20101;-62
2023/02/13 13:18:38;;;;;;;12.70;8.73;;;5.20;65.40;;;;;;5033959;28;20033;-62
2023/02/13 13:21:26;;;;;;;11.40;8.30;;;5.10;66.30;;;;;;5033936;28;20068;-62
2023/02/13 13:23:59;;;;;;;10.27;8.13;;;5.10;65.90;;;;;;5016657;28;20472;-62
2023/02/13 13:26:36;;;;;;;13.15;9.48;;;5.10;66.30;;;;;;5033827;28;20060;-62
2023/02/13 13:29:18;;;;;;;12.80;8.80;;;5.10;66.30;;;;;;5033554;28;20033;-62
2023/02/13 13:31:54;;;;;;;12.13;8.98;;;5.00;66.80;;;;;;5033874;28;20043;-62
2023/02/13 13:34:22;;;;;;;11.13;8.65;;;5.00;66.90;;;;;;5034015;28;20037;-62
2023/02/13 13:36:57;;;;;;;10.25;7.22;;;5.00;66.90;;;;;;5033783;28;20464;-62
2023/02/13 13:39:52;;;;;;;11.20;7.72;;;5.10;66.90;;;;;;5033780;28;20052;-62
2023/02/13 13:42:38;;;;;;;11.23;8.35;;;5.10;67.20;;;;;;5033483;28;20060;-62
2023/02/13 13:45:37;;;;;;;10.32;7.93;;;5.10;67.00;;;;;;5033955;28;20116;-62
2023/02/13 13:48:22;;;;;;;10.82;7.80;;;5.10;66.90;;;;;;5033821;28;20170;-62
2023/02/13 13:50:48;;;;;;;11.02;7.93;;;5.20;67.00;;;;;;5034169;28;20171;-61
2023/02/13 13:53:22;;;;;;;9.25;7.45;;;5.20;67.10;;;;;;5033377;28;20021;-62
2023/02/13 13:55:57;;;;;;;9.13;7.57;;;5.20;67.00;;;;;;5033909;28;20049;-62
2023/02/13 13:58:41;;;;;;;12.05;8.60;;;5.20;67.10;;;;;;5033478;28;20026;-62
2023/02/13 14:01:29;;;;;;;11.32;8.40;;;5.20;67.20;;;;;;5033492;28;20033;-62